Time;durP1;ratioP1;P1;durP2;ratioP2;P2;SDS_P1;SDS_P2;PMS_P1;PMS_P2;Temp;Humidity;BMP_temperature;BMP_pressure;BME280_temperature;BME280_humidity;BME280_pressure;Samples;Min_cycle;Max_cycle;Signal;HPM_P1;HPM_P2
2022/01/17 00:01:07;;;;;;;14.88;2.35;;;6.40;99.90;;;;;;5012455;28;20091;-48
2022/01/17 00:03:34;;;;;;;22.50;2.88;;;6.40;99.90;;;;;;5011409;28;20038;-49
2022/01/17 00:06:00;;;;;;;10.98;2.67;;;6.40;99.90;;;;;;5012852;28;20042;-49
2022/01/17 00:08:25;;;;;;;13.68;2.38;;;6.40;99.90;;;;;;5012927;28;20038;-49
2022/01/17 00:10:51;;;;;;;15.80;2.42;;;6.40;99.90;;;;;;5012683;28;20046;-53
2022/01/17 00:13:28;;;;;;;18.23;2.72;;;6.40;99.90;;;;;;5012589;28;20053;-50
2022/01/17 00:16:05;;;;;;;11.73;2.00;;;6.40;99.90;;;;;;5012150;28;20068;-52
2022/01/17 00:21:03;;;;;;;12.80;2.23;;;6.30;99.90;;;;;;5012553;28;20038;-50
2022/01/17 00:23:28;;;;;;;11.30;2.08;;;6.30;99.90;;;;;;5012138;28;20038;-50
2022/01/17 00:25:54;;;;;;;12.90;2.10;;;6.30;99.90;;;;;;5011738;28;20048;-50
2022/01/17 00:28:20;;;;;;;10.70;2.50;;;6.30;99.90;;;;;;5011772;28;20046;-51
2022/01/17 00:30:45;;;;;;;15.10;2.20;;;6.30;99.90;;;;;;5012438;28;20041;-49
2022/01/17 00:33:11;;;;;;;19.60;2.42;;;6.20;99.90;;;;;;5011662;28;20042;-50
2022/01/17 00:35:37;;;;;;;17.65;3.33;;;6.20;99.90;;;;;;5012418;28;20137;-51
2022/01/17 00:38:04;;;;;;;17.02;2.22;;;6.20;99.90;;;;;;5012026;28;20486;-50
2022/01/17 00:40:29;;;;;;;16.35;2.08;;;6.20;99.90;;;;;;5011966;28;20516;-49
2022/01/17 00:42:55;;;;;;;23.85;3.33;;;6.10;99.90;;;;;;5002976;28;20042;-50
2022/01/17 00:45:27;;;;;;;14.55;2.00;;;6.10;99.90;;;;;;4992588;28;20351;-50
2022/01/17 00:47:55;;;;;;;16.08;2.65;;;6.10;99.90;;;;;;5010616;28;20459;-50
2022/01/17 00:50:21;;;;;;;14.65;2.58;;;6.10;99.90;;;;;;5012034;28;20091;-51
2022/01/17 00:52:47;;;;;;;14.13;1.98;;;6.10;99.90;;;;;;5011684;28;20088;-50
2022/01/17 00:55:12;;;;;;;12.18;2.63;;;6.10;99.90;;;;;;5011990;28;20070;-51
2022/01/17 00:57:38;;;;;;;17.58;2.15;;;6.10;99.90;;;;;;5011660;28;20042;-50
2022/01/17 01:00:05;;;;;;;13.07;2.30;;;6.00;99.90;;;;;;4994462;28;20084;-51
2022/01/17 01:02:30;;;;;;;15.38;2.53;;;6.10;99.90;;;;;;5010677;28;20049;-53
2022/01/17 01:04:56;;;;;;;15.35;2.30;;;6.00;99.90;;;;;;5011981;28;20042;-50
2022/01/17 01:07:21;;;;;;;17.02;2.47;;;6.00;99.90;;;;;;5011215;28;20112;-50
2022/01/17 01:10:03;;;;;;;15.68;2.53;;;6.00;99.90;;;;;;5011384;28;20040;-50
2022/01/17 01:12:28;;;;;;;19.63;3.17;;;6.00;99.90;;;;;;5011665;28;20513;-51
2022/01/17 01:14:54;;;;;;;15.20;2.17;;;6.00;99.90;;;;;;5010738;28;20041;-50
2022/01/17 01:18:14;;;;;;;10.60;2.22;;;5.90;99.90;;;;;;5010043;28;20061;-50
2022/01/17 01:20:22;;;;;;;15.82;2.50;;;5.90;99.90;;;;;;5000941;28;20100;-50
2022/01/17 01:28:25;;;;;;;12.80;2.13;;;5.90;99.90;;;;;;5011255;28;20061;-50
2022/01/17 01:30:54;;;;;;;21.90;2.80;;;5.90;99.90;;;;;;5011469;28;20410;-50
2022/01/17 01:33:27;;;;;;;15.07;2.72;;;5.90;99.90;;;;;;4993278;28;20053;-51
2022/01/17 01:36:00;;;;;;;16.55;2.33;;;5.90;99.90;;;;;;5011559;28;20046;-50
2022/01/17 01:38:26;;;;;;;15.48;2.28;;;5.80;99.90;;;;;;5015490;28;20048;-50
2022/01/17 01:40:51;;;;;;;14.05;2.47;;;5.80;99.90;;;;;;5015428;28;20295;-49
2022/01/17 01:43:17;;;;;;;15.15;2.83;;;5.80;99.90;;;;;;5015020;28;20084;-49
2022/01/17 01:45:47;;;;;;;16.58;2.28;;;5.80;99.90;;;;;;5015128;28;20034;-50
2022/01/17 01:48:13;;;;;;;16.08;2.60;;;5.80;99.90;;;;;;5015230;28;20440;-49
2022/01/17 01:50:38;;;;;;;16.27;2.20;;;5.70;99.90;;;;;;5015312;28;20116;-50
2022/01/17 01:53:04;;;;;;;13.00;2.60;;;5.70;99.90;;;;;;5015058;28;20502;-53
2022/01/17 01:55:30;;;;;;;16.88;2.55;;;5.60;99.90;;;;;;5015193;28;20045;-54
2022/01/17 01:57:57;;;;;;;13.90;2.55;;;5.60;99.90;;;;;;5014545;28;20057;-53
2022/01/17 02:00:23;;;;;;;12.23;2.58;;;5.50;99.90;;;;;;5014765;28;20042;-51
2022/01/17 02:02:48;;;;;;;25.38;3.10;;;5.50;99.90;;;;;;5014614;28;20433;-53
2022/01/17 02:05:14;;;;;;;21.55;2.65;;;5.40;99.90;;;;;;5015053;28;20037;-51
2022/01/17 02:07:43;;;;;;;15.60;2.33;;;5.40;99.90;;;;;;5014454;28;20034;-51
2022/01/17 02:10:09;;;;;;;14.68;3.05;;;5.40;99.90;;;;;;5014894;28;20038;-52
2022/01/17 02:12:35;;;;;;;15.77;2.70;;;5.40;99.90;;;;;;5014520;28;20120;-51
2022/01/17 02:15:02;;;;;;;11.43;2.58;;;5.40;99.90;;;;;;5014887;28;20077;-51
2022/01/17 02:17:30;;;;;;;16.67;2.38;;;5.40;99.90;;;;;;5014189;28;20038;-51
2022/01/17 02:20:04;;;;;;;15.32;2.38;;;5.40;99.90;;;;;;4997013;28;20104;-51
2022/01/17 02:22:30;;;;;;;16.05;2.25;;;5.40;99.90;;;;;;5014362;28;20426;-51
2022/01/17 02:24:56;;;;;;;13.02;2.65;;;5.40;99.90;;;;;;5014298;28;20046;-50
2022/01/17 02:27:22;;;;;;;19.17;2.88;;;5.40;99.90;;;;;;5014312;28;20486;-50
2022/01/17 02:29:47;;;;;;;15.65;2.20;;;5.40;99.90;;;;;;5014712;28;20096;-51
2022/01/17 02:32:13;;;;;;;13.43;2.15;;;5.40;99.90;;;;;;5014158;28;20517;-52
2022/01/17 02:34:40;;;;;;;20.05;2.72;;;5.40;99.90;;;;;;5001334;28;20121;-50
2022/01/17 02:37:06;;;;;;;18.65;2.67;;;5.40;99.90;;;;;;4994712;28;20046;-50
2022/01/17 02:39:31;;;;;;;12.27;2.20;;;5.40;99.90;;;;;;4977167;28;20092;-52
2022/01/17 02:42:01;;;;;;;22.25;2.97;;;5.40;99.90;;;;;;5013849;28;20506;-51
2022/01/17 02:44:26;;;;;;;15.73;2.65;;;5.30;99.90;;;;;;5014247;28;20405;-50
2022/01/17 02:46:52;;;;;;;21.92;2.65;;;5.30;99.90;;;;;;5013988;28;20042;-51
2022/01/17 02:49:17;;;;;;;13.90;2.38;;;5.30;99.90;;;;;;5013015;28;20044;-54
2022/01/17 02:51:47;;;;;;;24.63;2.60;;;5.30;99.90;;;;;;5013723;28;20491;-50
2022/01/17 02:54:13;;;;;;;18.02;2.70;;;5.30;99.90;;;;;;5013675;28;20038;-51
2022/01/17 02:56:38;;;;;;;18.10;3.15;;;5.30;99.90;;;;;;5014085;28;20048;-51
2022/01/17 02:59:04;;;;;;;19.30;2.22;;;5.20;99.90;;;;;;5014091;28;20045;-51
2022/01/17 03:01:29;;;;;;;19.55;2.67;;;5.20;99.90;;;;;;4993192;28;20042;-50
2022/01/17 03:03:57;;;;;;;17.15;2.60;;;5.20;99.90;;;;;;5013293;28;20034;-51
2022/01/17 03:06:23;;;;;;;13.45;2.70;;;5.20;99.90;;;;;;5013518;28;20120;-52
2022/01/17 03:08:50;;;;;;;16.80;2.67;;;5.20;99.90;;;;;;5013568;28;20049;-51
2022/01/17 03:11:20;;;;;;;23.35;3.05;;;5.10;99.90;;;;;;5013761;28;20077;-52
2022/01/17 03:13:47;;;;;;;17.63;2.47;;;5.20;99.90;;;;;;5013683;28;20044;-50
2022/01/17 03:16:16;;;;;;;16.30;3.15;;;5.20;99.90;;;;;;5018519;28;20112;-50
2022/01/17 03:18:47;;;;;;;13.93;2.25;;;5.10;99.90;;;;;;5017605;28;20037;-50
2022/01/17 03:21:15;;;;;;;21.85;2.63;;;5.10;99.90;;;;;;5015441;28;20070;-51
2022/01/17 03:23:41;;;;;;;12.85;2.30;;;5.10;99.90;;;;;;5012836;28;20045;-50
2022/01/17 03:26:07;;;;;;;13.18;2.63;;;5.00;99.90;;;;;;5013511;28;20037;-51
2022/01/17 03:28:34;;;;;;;21.67;2.42;;;5.00;99.90;;;;;;5021878;28;20084;-50
2022/01/17 03:31:00;;;;;;;25.90;3.03;;;5.00;99.90;;;;;;5013318;28;20033;-50
2022/01/17 03:33:26;;;;;;;21.05;2.50;;;5.00;99.90;;;;;;5029469;28;20452;-51
2022/01/17 03:35:52;;;;;;;17.80;3.00;;;5.00;99.90;;;;;;5013150;28;20064;-50
2022/01/17 03:38:21;;;;;;;13.88;2.47;;;4.90;99.90;;;;;;5010901;28;20069;-50
2022/01/17 03:40:47;;;;;;;18.63;2.60;;;4.90;99.90;;;;;;4988103;28;20054;-52
2022/01/17 03:43:13;;;;;;;22.83;2.97;;;4.90;99.90;;;;;;5013023;28;20088;-52
2022/01/17 03:45:40;;;;;;;16.33;2.20;;;4.90;99.90;;;;;;5011690;28;20490;-52
2022/01/17 03:48:06;;;;;;;13.05;2.38;;;4.90;99.90;;;;;;4995031;28;20042;-51
2022/01/17 03:50:33;;;;;;;17.92;2.25;;;4.90;99.90;;;;;;4995159;28;20430;-53
2022/01/17 03:52:58;;;;;;;20.10;3.20;;;4.90;99.90;;;;;;5012887;28;20509;-51
2022/01/17 03:55:28;;;;;;;17.70;2.88;;;4.90;99.90;;;;;;5012398;28;20072;-51
2022/01/17 03:57:53;;;;;;;15.95;2.45;;;4.90;99.90;;;;;;5012493;28;20046;-50
2022/01/17 04:00:25;;;;;;;16.77;2.60;;;4.90;99.90;;;;;;5011913;28;20700;-50
2022/01/17 04:02:53;;;;;;;18.48;2.58;;;5.00;99.90;;;;;;5012368;28;20484;-50
2022/01/17 04:05:19;;;;;;;16.92;3.50;;;5.00;99.90;;;;;;5012709;28;20449;-51
2022/01/17 04:07:44;;;;;;;15.15;2.33;;;5.00;99.90;;;;;;4993001;28;20042;-50
2022/01/17 04:10:10;;;;;;;13.88;2.47;;;5.00;99.90;;;;;;5003186;28;20379;-51
2022/01/17 04:12:36;;;;;;;23.67;4.95;;;5.10;99.90;;;;;;5012398;28;20041;-52
2022/01/17 04:15:02;;;;;;;14.85;2.30;;;5.10;99.90;;;;;;5012387;28;20045;-50
2022/01/17 04:17:29;;;;;;;14.63;2.60;;;5.20;99.90;;;;;;5012275;28;20494;-51
2022/01/17 04:20:03;;;;;;;13.13;2.30;;;5.20;99.90;;;;;;5012311;28;20050;-51
2022/01/17 04:22:32;;;;;;;15.80;2.80;;;5.20;99.90;;;;;;5012302;28;20044;-50
2022/01/17 04:24:58;;;;;;;17.95;2.60;;;5.20;99.90;;;;;;5012185;28;20406;-52
2022/01/17 04:27:23;;;;;;;16.13;2.78;;;5.20;99.90;;;;;;5012396;28;20042;-50
2022/01/17 04:29:49;;;;;;;12.88;2.42;;;5.20;99.90;;;;;;5012030;28;20044;-51
2022/01/17 04:32:15;;;;;;;17.15;2.92;;;5.20;99.90;;;;;;5012059;28;20046;-51
2022/01/17 04:34:40;;;;;;;15.07;2.25;;;5.20;99.90;;;;;;5012228;28;20502;-50
2022/01/17 04:37:07;;;;;;;15.20;2.80;;;5.10;99.90;;;;;;5012251;28;20053;-50
2022/01/17 04:39:33;;;;;;;16.70;2.72;;;5.10;99.90;;;;;;5011888;28;20120;-51
2022/01/17 04:41:58;;;;;;;19.02;2.55;;;5.10;99.90;;;;;;4994166;28;20125;-50
2022/01/17 04:47:08;;;;;;;19.25;2.75;;;5.10;99.90;;;;;;5012084;28;20057;-51
2022/01/17 04:49:33;;;;;;;14.75;2.25;;;5.10;99.90;;;;;;5012102;28;20034;-50
2022/01/17 04:51:59;;;;;;;16.60;2.40;;;5.10;99.90;;;;;;5012025;28;20048;-53
2022/01/17 04:54:42;;;;;;;13.57;2.83;;;5.10;99.90;;;;;;5011487;28;20038;-50
2022/01/17 04:57:09;;;;;;;12.27;2.47;;;5.10;99.90;;;;;;5011480;28;20081;-50
2022/01/17 04:59:35;;;;;;;13.32;2.67;;;5.10;99.90;;;;;;5011755;28;20498;-50
2022/01/17 05:02:01;;;;;;;21.23;2.83;;;5.10;99.90;;;;;;5011632;28;20556;-50
2022/01/17 05:04:26;;;;;;;16.98;2.88;;;5.10;99.90;;;;;;5011781;28;20034;-51
2022/01/17 05:06:52;;;;;;;10.90;2.13;;;5.20;99.90;;;;;;5011300;28;20072;-50
2022/01/17 05:09:17;;;;;;;18.70;2.75;;;5.20;99.90;;;;;;5011467;28;20045;-51
2022/01/17 05:11:43;;;;;;;16.25;2.60;;;5.20;99.90;;;;;;5010540;28;20091;-50
2022/01/17 05:14:09;;;;;;;13.38;2.30;;;5.30;99.90;;;;;;5011463;28;20092;-50
2022/01/17 05:16:41;;;;;;;15.07;2.83;;;5.30;99.90;;;;;;4993922;28;20473;-50
2022/01/17 05:21:50;;;;;;;14.68;2.58;;;5.40;99.90;;;;;;5011525;28;20157;-50
2022/01/17 05:24:16;;;;;;;19.08;3.05;;;5.50;99.90;;;;;;5010863;28;20150;-51
2022/01/17 05:26:42;;;;;;;15.68;2.50;;;5.40;99.90;;;;;;5011404;28;20050;-50
2022/01/17 05:29:07;;;;;;;18.45;3.03;;;5.50;99.90;;;;;;4993954;28;20080;-50
2022/01/17 05:31:33;;;;;;;16.88;2.75;;;5.50;99.90;;;;;;5011549;28;20049;-50
2022/01/17 05:33:58;;;;;;;18.52;3.25;;;5.50;99.90;;;;;;5011495;28;20042;-51
2022/01/17 05:36:24;;;;;;;20.42;3.13;;;5.50;99.90;;;;;;5011461;28;20068;-53
2022/01/17 05:38:52;;;;;;;19.42;2.70;;;5.50;99.90;;;;;;5010661;28;20430;-50
2022/01/17 05:41:18;;;;;;;22.17;3.05;;;5.50;99.90;;;;;;5011478;28;20042;-50
2022/01/17 05:43:43;;;;;;;18.27;3.10;;;5.50;99.90;;;;;;5011384;28;20161;-51
2022/01/17 05:46:09;;;;;;;14.57;2.92;;;5.60;99.90;;;;;;5001711;28;20035;-51
2022/01/17 05:48:34;;;;;;;19.95;2.83;;;5.60;99.90;;;;;;4992220;28;20376;-50
2022/01/17 05:51:00;;;;;;;13.52;2.40;;;5.60;99.90;;;;;;4974330;28;20554;-51
2022/01/17 05:53:25;;;;;;;18.45;2.45;;;5.60;99.90;;;;;;4998239;28;20042;-51
2022/01/17 05:55:51;;;;;;;13.45;3.17;;;5.60;99.90;;;;;;4993908;28;20426;-51
2022/01/17 05:58:16;;;;;;;16.40;2.97;;;5.60;99.90;;;;;;5011566;28;20091;-50
2022/01/17 06:00:42;;;;;;;21.88;3.67;;;5.60;99.90;;;;;;5008023;28;20067;-51
2022/01/17 06:03:08;;;;;;;24.30;3.83;;;5.60;99.90;;;;;;5010363;28;20088;-50
2022/01/17 06:05:33;;;;;;;18.88;3.50;;;5.70;99.90;;;;;;5010645;28;20466;-50
2022/01/17 06:07:59;;;;;;;18.48;3.85;;;5.70;99.90;;;;;;5011399;28;20038;-53
2022/01/17 06:10:24;;;;;;;18.63;4.63;;;5.70;99.90;;;;;;5011584;28;20138;-56
2022/01/17 06:12:50;;;;;;;17.10;4.57;;;5.80;99.90;;;;;;5011399;28;20038;-53
2022/01/17 06:15:18;;;;;;;20.08;4.57;;;5.80;99.90;;;;;;5011067;28;20484;-53
2022/01/17 06:17:44;;;;;;;21.15;4.50;;;5.80;99.90;;;;;;5011093;28;20045;-53
2022/01/17 06:20:10;;;;;;;22.95;5.40;;;5.90;99.90;;;;;;5010805;28;20037;-56
2022/01/17 06:22:36;;;;;;;24.30;6.25;;;5.90;99.90;;;;;;5010180;28;20038;-56
2022/01/17 06:25:02;;;;;;;19.05;5.35;;;5.90;99.90;;;;;;5014166;28;20371;-53
2022/01/17 06:27:28;;;;;;;21.60;4.90;;;5.90;99.90;;;;;;5014546;28;20486;-56
2022/01/17 06:29:53;;;;;;;19.17;5.32;;;5.90;99.90;;;;;;5014195;28;20064;-54
2022/01/17 06:32:19;;;;;;;20.50;4.97;;;5.90;99.90;;;;;;4995294;28;20088;-57
2022/01/17 06:34:44;;;;;;;18.48;5.75;;;6.00;99.90;;;;;;5006564;28;20120;-55
2022/01/17 06:37:10;;;;;;;21.15;5.95;;;6.00;99.90;;;;;;4993965;28;20414;-55
2022/01/17 06:39:35;;;;;;;25.48;6.43;;;6.00;99.90;;;;;;5008010;28;20513;-56
2022/01/17 06:42:01;;;;;;;24.58;6.43;;;6.00;99.90;;;;;;5014341;28;20049;-53
2022/01/17 06:44:26;;;;;;;21.77;6.45;;;6.00;99.90;;;;;;5011555;28;20048;-56
2022/01/17 06:46:52;;;;;;;21.88;7.35;;;6.00;99.90;;;;;;5005817;28;20379;-55
2022/01/17 06:49:17;;;;;;;23.67;6.88;;;6.00;99.90;;;;;;5002528;28;20810;-56
2022/01/17 06:51:43;;;;;;;25.50;8.20;;;6.10;99.90;;;;;;5012076;28;20065;-56
2022/01/17 06:54:08;;;;;;;33.75;7.88;;;6.10;99.90;;;;;;5011529;28;20518;-54
2022/01/17 06:56:34;;;;;;;22.13;7.53;;;6.10;99.90;;;;;;5006958;28;20052;-56
2022/01/17 06:58:59;;;;;;;24.77;7.85;;;6.10;99.90;;;;;;4996704;28;20073;-56
2022/01/17 07:01:25;;;;;;;27.85;7.95;;;6.10;99.90;;;;;;5001711;28;20042;-56
2022/01/17 07:03:51;;;;;;;29.10;8.35;;;6.10;99.90;;;;;;5013703;28;20545;-55
2022/01/17 07:06:17;;;;;;;28.02;8.00;;;6.20;99.90;;;;;;5001279;28;20042;-54
2022/01/17 07:08:45;;;;;;;20.25;7.70;;;6.20;99.90;;;;;;5009123;28;20038;-55
2022/01/17 07:11:11;;;;;;;26.25;8.65;;;6.10;99.90;;;;;;5012073;28;20168;-56
2022/01/17 07:13:37;;;;;;;23.60;7.50;;;6.20;99.90;;;;;;5008466;28;20065;-56
2022/01/17 07:16:04;;;;;;;26.52;7.75;;;6.20;99.90;;;;;;5004515;28;20082;-56
2022/01/17 07:18:29;;;;;;;23.67;8.27;;;6.20;99.90;;;;;;5011209;28;20041;-56
2022/01/17 07:20:55;;;;;;;27.10;8.32;;;6.20;99.90;;;;;;5011154;28;20057;-54
2022/01/17 07:23:21;;;;;;;23.75;7.70;;;6.20;99.90;;;;;;5011742;28;20402;-56
2022/01/17 07:25:46;;;;;;;26.25;8.30;;;6.20;99.90;;;;;;5010056;28;20117;-56
2022/01/17 07:28:13;;;;;;;32.95;8.55;;;6.20;99.90;;;;;;5011946;28;20080;-55
2022/01/17 07:30:39;;;;;;;34.42;10.38;;;6.20;99.90;;;;;;5008836;28;20034;-55
2022/01/17 07:33:06;;;;;;;26.48;7.93;;;6.20;99.90;;;;;;5011702;28;20445;-55
2022/01/17 07:35:32;;;;;;;27.80;8.65;;;6.20;99.90;;;;;;4993016;28;20037;-56
2022/01/17 07:37:58;;;;;;;27.30;8.23;;;6.10;99.90;;;;;;5012135;28;20033;-55
2022/01/17 07:40:24;;;;;;;24.02;7.32;;;6.20;99.90;;;;;;5010144;28;20075;-55
2022/01/17 07:42:49;;;;;;;28.30;7.60;;;6.10;99.90;;;;;;5011413;28;20493;-54
2022/01/17 07:45:17;;;;;;;23.45;7.50;;;6.20;99.90;;;;;;5009558;28;20034;-56
2022/01/17 07:50:21;;;;;;;26.98;7.90;;;6.10;99.90;;;;;;5010214;28;20515;-56
2022/01/17 07:52:48;;;;;;;26.25;6.85;;;6.10;99.90;;;;;;5009442;28;20056;-55
2022/01/17 07:55:15;;;;;;;27.80;6.47;;;6.10;99.90;;;;;;5011741;28;20045;-55
2022/01/17 07:57:41;;;;;;;29.42;6.78;;;6.20;99.90;;;;;;5011217;28;20045;-56
2022/01/17 08:00:09;;;;;;;28.48;6.90;;;6.20;99.90;;;;;;5010439;28;20046;-56
2022/01/17 08:02:35;;;;;;;29.85;6.63;;;6.20;99.90;;;;;;5009560;28;20104;-56
2022/01/17 08:05:02;;;;;;;27.75;6.20;;;6.20;99.90;;;;;;5011099;28;20029;-56
2022/01/17 08:07:28;;;;;;;21.00;5.70;;;6.20;99.90;;;;;;5007705;28;20049;-56
2022/01/17 08:09:54;;;;;;;24.95;5.97;;;6.20;99.90;;;;;;5007361;28;20121;-55
2022/01/17 08:12:19;;;;;;;30.70;6.07;;;6.20;99.90;;;;;;5008956;28;20133;-56
2022/01/17 08:14:45;;;;;;;27.63;6.07;;;6.20;99.90;;;;;;5011996;28;20041;-56
2022/01/17 08:17:11;;;;;;;27.67;5.43;;;6.20;99.90;;;;;;5003809;28;20495;-56
2022/01/17 08:19:37;;;;;;;28.20;6.07;;;6.20;99.90;;;;;;5012729;28;20054;-55
2022/01/17 08:22:05;;;;;;;24.30;5.78;;;6.20;99.90;;;;;;5009636;28;20042;-55
2022/01/17 08:24:31;;;;;;;34.22;5.88;;;6.20;99.90;;;;;;5012233;28;20042;-55
2022/01/17 08:26:58;;;;;;;22.05;4.90;;;6.30;99.90;;;;;;5009713;28;20061;-53
2022/01/17 08:29:25;;;;;;;32.65;4.32;;;6.30;99.90;;;;;;4994121;28;20097;-56
2022/01/17 08:31:51;;;;;;;32.78;5.82;;;6.30;99.90;;;;;;4999781;28;20057;-54
2022/01/17 08:34:17;;;;;;;18.05;4.90;;;6.30;99.90;;;;;;4995411;28;20034;-56
2022/01/17 08:36:44;;;;;;;28.98;4.70;;;6.30;99.90;;;;;;4994223;28;20494;-52
2022/01/17 08:39:11;;;;;;;25.10;5.13;;;6.30;99.90;;;;;;5007555;28;20038;-55
2022/01/17 08:41:41;;;;;;;26.80;4.22;;;6.40;99.90;;;;;;5012160;28;20204;-55
2022/01/17 08:44:10;;;;;;;23.17;5.35;;;6.40;99.90;;;;;;4995645;28;20053;-55
2022/01/17 08:46:36;;;;;;;28.70;4.38;;;6.40;99.90;;;;;;5007511;28;20041;-55
2022/01/17 08:49:01;;;;;;;20.45;3.83;;;6.40;99.90;;;;;;5012194;28;20034;-56
2022/01/17 08:51:27;;;;;;;21.55;3.88;;;6.50;99.90;;;;;;5012153;28;20042;-55
2022/01/17 08:53:52;;;;;;;31.00;4.18;;;6.50;99.90;;;;;;5011492;28;20049;-56
2022/01/17 08:56:18;;;;;;;29.58;4.30;;;6.50;99.90;;;;;;5011747;28;20482;-56
2022/01/17 08:58:43;;;;;;;25.88;4.80;;;6.50;99.90;;;;;;5011649;28;20041;-56
2022/01/17 09:01:13;;;;;;;32.13;5.35;;;6.60;99.90;;;;;;5012001;28;20482;-55
2022/01/17 09:03:39;;;;;;;21.27;4.50;;;6.60;99.90;;;;;;5008657;28;20050;-54
2022/01/17 09:06:05;;;;;;;33.65;5.22;;;6.70;99.90;;;;;;4992268;28;20074;-55
2022/01/17 09:08:30;;;;;;;28.90;4.75;;;6.70;99.90;;;;;;5006801;28;20069;-55
2022/01/17 09:10:57;;;;;;;32.53;4.07;;;6.70;99.90;;;;;;5011826;28;20104;-54
2022/01/17 09:13:24;;;;;;;29.48;5.05;;;6.70;99.90;;;;;;5011591;28;20045;-56
2022/01/17 09:15:50;;;;;;;32.67;4.85;;;6.80;99.90;;;;;;5022682;28;20467;-56
2022/01/17 09:18:16;;;;;;;24.52;4.07;;;6.80;99.90;;;;;;5027975;28;20037;-55
2022/01/17 09:20:42;;;;;;;36.95;4.07;;;6.90;99.90;;;;;;5016586;28;20139;-56
2022/01/17 09:23:08;;;;;;;31.75;4.75;;;6.90;99.90;;;;;;5024268;28;20041;-56
2022/01/17 09:25:34;;;;;;;39.13;5.25;;;6.90;99.90;;;;;;4994342;28;20114;-56
2022/01/17 09:27:59;;;;;;;27.83;5.30;;;7.00;99.90;;;;;;4991801;28;20039;-53
2022/01/17 09:30:25;;;;;;;29.15;4.35;;;7.00;99.90;;;;;;4993539;28;20403;-56
2022/01/17 09:32:51;;;;;;;24.27;4.20;;;7.00;99.90;;;;;;4991913;28;20169;-56
2022/01/17 09:35:17;;;;;;;28.08;4.32;;;7.10;99.90;;;;;;4992030;28;20395;-55
2022/01/17 09:37:43;;;;;;;29.42;4.43;;;7.20;99.90;;;;;;4991916;28;20038;-54
2022/01/17 09:40:10;;;;;;;28.92;4.13;;;7.10;99.90;;;;;;5004001;28;20031;-55
2022/01/17 09:42:39;;;;;;;30.15;4.35;;;7.20;99.90;;;;;;4992394;28;20446;-55
2022/01/17 09:45:10;;;;;;;30.08;5.00;;;7.20;99.90;;;;;;5013184;28;20050;-56
2022/01/17 09:47:37;;;;;;;37.65;4.90;;;7.30;99.90;;;;;;5018979;28;20070;-55
2022/01/17 09:50:06;;;;;;;28.90;4.20;;;7.30;99.90;;;;;;5011313;28;20038;-54
2022/01/17 09:52:35;;;;;;;46.25;5.35;;;7.40;99.90;;;;;;5008545;28;20054;-55
2022/01/17 09:55:07;;;;;;;37.88;5.72;;;7.50;99.90;;;;;;5007750;28;20097;-56
2022/01/17 09:57:40;;;;;;;31.17;5.32;;;7.50;99.90;;;;;;4994072;28;20101;-56
2022/01/17 10:00:08;;;;;;;29.15;4.20;;;7.60;99.90;;;;;;5003651;28;20457;-56
2022/01/17 10:02:34;;;;;;;31.23;5.13;;;7.60;99.90;;;;;;5014604;28;20045;-56
2022/01/17 10:05:02;;;;;;;43.17;5.30;;;7.70;99.90;;;;;;5014075;28;20069;-55
2022/01/17 10:07:53;;;;;;;40.00;5.03;;;7.80;99.90;;;;;;5011458;28;20046;-55
2022/01/17 10:10:51;;;;;;;28.10;4.07;;;7.80;99.90;;;;;;5007196;28;20057;-56
2022/01/17 10:13:32;;;;;;;26.67;4.18;;;7.90;99.90;;;;;;5022252;28;20034;-56
2022/01/17 10:16:05;;;;;;;26.27;4.07;;;8.00;99.90;;;;;;5010563;28;20391;-56
2022/01/17 10:18:42;;;;;;;24.35;4.32;;;8.00;99.90;;;;;;4984566;28;20132;-56
2022/01/17 10:21:26;;;;;;;39.28;6.43;;;8.00;99.90;;;;;;5005451;28;20092;-54
2022/01/17 10:37:16;;;;;;;29.83;4.95;;;8.20;99.90;;;;;;5008483;28;20084;-55
2022/01/17 10:39:53;;;;;;;36.15;4.85;;;8.20;99.90;;;;;;5014304;28;20120;-55
2022/01/17 10:42:42;;;;;;;28.40;5.45;;;8.30;99.90;;;;;;5004652;28;20125;-56
2022/01/17 10:45:33;;;;;;;29.52;4.20;;;8.40;99.90;;;;;;4998500;28;20034;-56
2022/01/17 10:48:00;;;;;;;34.78;5.32;;;8.30;99.90;;;;;;5004108;28;20034;-54
2022/01/17 10:50:33;;;;;;;41.60;6.80;;;8.40;99.90;;;;;;5001430;28;20491;-56
2022/01/17 10:53:02;;;;;;;29.35;4.35;;;8.40;99.90;;;;;;4994410;28;20080;-56
2022/01/17 10:55:33;;;;;;;35.08;5.38;;;8.50;99.90;;;;;;4995985;28;20092;-54
2022/01/17 10:58:11;;;;;;;30.13;4.50;;;8.50;99.90;;;;;;5014859;28;20052;-55
2022/01/17 11:00:40;;;;;;;37.53;5.07;;;8.50;99.90;;;;;;5020536;28;20038;-55
2022/01/17 11:03:11;;;;;;;40.33;6.18;;;8.50;99.90;;;;;;5013356;28;20045;-55
2022/01/17 11:05:42;;;;;;;42.10;5.88;;;8.50;99.90;;;;;;5013404;28;20096;-56
2022/01/17 11:08:08;;;;;;;37.72;5.50;;;8.60;99.90;;;;;;5013013;28;20042;-56
2022/01/17 11:10:36;;;;;;;42.88;6.05;;;8.70;99.90;;;;;;5012275;28;20030;-56
2022/01/17 11:13:04;;;;;;;37.60;4.88;;;8.70;99.90;;;;;;5012617;28;20038;-55
2022/01/17 11:15:34;;;;;;;28.92;5.00;;;8.80;99.90;;;;;;5014461;28;20092;-54
2022/01/17 11:18:05;;;;;;;43.97;5.40;;;8.70;99.90;;;;;;5014022;28;20538;-55
2022/01/17 11:20:32;;;;;;;33.50;5.47;;;8.80;99.90;;;;;;5002559;28;20038;-56
2022/01/17 11:23:00;;;;;;;32.92;6.43;;;8.80;99.90;;;;;;5024889;28;20048;-56
2022/01/17 11:25:29;;;;;;;39.22;6.03;;;8.80;99.90;;;;;;5031234;28;20041;-56
2022/01/17 11:27:55;;;;;;;36.67;6.22;;;8.90;99.90;;;;;;4997247;28;20035;-53
2022/01/17 11:30:22;;;;;;;34.35;6.70;;;8.80;99.90;;;;;;5009138;28;20116;-55
2022/01/17 11:32:50;;;;;;;55.90;5.90;;;8.90;99.90;;;;;;5012493;28;20057;-56
2022/01/17 11:35:17;;;;;;;34.15;5.63;;;8.90;99.90;;;;;;5011766;28;20058;-54
2022/01/17 11:37:46;;;;;;;41.63;6.40;;;8.80;99.90;;;;;;5013203;28;20045;-56
2022/01/17 11:40:13;;;;;;;38.20;5.82;;;8.90;99.90;;;;;;5012793;28;20391;-56
2022/01/17 11:42:45;;;;;;;38.25;6.35;;;8.90;99.90;;;;;;5012896;28;20041;-56
2022/01/17 11:45:23;;;;;;;37.38;6.07;;;8.90;99.90;;;;;;5013196;28;20038;-56
2022/01/17 11:47:58;;;;;;;39.97;5.55;;;9.00;99.90;;;;;;5005084;28;20046;-54
2022/01/17 11:50:33;;;;;;;41.00;6.18;;;9.00;99.90;;;;;;5012787;28;20109;-56
2022/01/17 11:53:11;;;;;;;46.45;7.00;;;9.10;99.90;;;;;;5012738;28;20498;-56
2022/01/17 11:55:40;;;;;;;39.80;6.03;;;9.20;99.90;;;;;;5005937;28;20049;-55
2022/01/17 11:58:36;;;;;;;35.78;6.40;;;9.20;99.90;;;;;;5012766;28;20525;-55
2022/01/17 12:01:04;;;;;;;38.10;6.45;;;9.30;99.90;;;;;;5007793;28;20552;-56
2022/01/17 12:03:37;;;;;;;43.47;6.28;;;9.30;99.90;;;;;;5012197;28;20445;-56
2022/01/17 12:06:16;;;;;;;43.00;6.90;;;9.40;99.90;;;;;;5012791;28;20153;-55
2022/01/17 12:08:42;;;;;;;49.03;7.20;;;9.40;99.90;;;;;;4995431;28;20077;-51
2022/01/17 12:11:24;;;;;;;41.30;6.47;;;9.50;99.90;;;;;;5012694;28;20076;-51
2022/01/17 12:13:49;;;;;;;40.83;7.40;;;9.60;99.90;;;;;;4993090;28;20048;-53
2022/01/17 12:16:37;;;;;;;36.65;6.40;;;9.60;99.90;;;;;;5000656;28;20038;-50
2022/01/17 12:19:04;;;;;;;41.45;5.68;;;9.60;99.90;;;;;;5012446;28;20452;-52
2022/01/17 12:22:04;;;;;;;30.88;6.18;;;9.70;99.90;;;;;;5007703;28;20164;-52
2022/01/17 12:24:34;;;;;;;41.45;6.85;;;9.70;99.90;;;;;;5012144;28;20406;-52
2022/01/17 12:27:06;;;;;;;42.15;6.10;;;9.70;99.90;;;;;;5004816;28;20069;-51
2022/01/17 12:29:42;;;;;;;30.25;5.75;;;9.70;99.90;;;;;;5011976;28;20042;-50
2022/01/17 12:32:20;;;;;;;43.20;7.40;;;9.70;99.90;;;;;;5006445;28;20405;-51
2022/01/17 12:34:46;;;;;;;39.63;6.50;;;9.70;99.90;;;;;;5008680;28;20049;-50
2022/01/17 12:37:34;;;;;;;47.30;7.35;;;9.60;99.90;;;;;;4992606;28;20100;-50
2022/01/17 12:40:29;;;;;;;33.38;6.43;;;9.70;99.90;;;;;;5002763;28;20481;-53
2022/01/17 12:43:06;;;;;;;34.90;7.07;;;9.60;99.90;;;;;;5008346;28;20045;-52
2022/01/17 12:45:37;;;;;;;44.85;7.03;;;9.60;99.90;;;;;;5008027;28;20037;-52
2022/01/17 12:48:14;;;;;;;44.15;6.68;;;9.70;99.90;;;;;;5009706;28;20054;-52
2022/01/17 12:50:44;;;;;;;38.00;6.90;;;9.70;99.90;;;;;;4994008;28;20313;-51
2022/01/17 12:53:13;;;;;;;38.55;6.43;;;9.60;99.90;;;;;;4991946;28;20049;-51
2022/01/17 12:55:45;;;;;;;41.28;8.05;;;9.60;99.90;;;;;;4997204;28;20398;-51
2022/01/17 12:58:17;;;;;;;42.13;6.20;;;9.60;99.90;;;;;;5000235;28;20053;-50
2022/01/17 13:01:07;;;;;;;40.83;6.97;;;9.60;99.90;;;;;;5010785;28;20045;-51
2022/01/17 13:03:36;;;;;;;44.22;7.82;;;9.60;99.90;;;;;;5011154;28;20042;-50
2022/01/17 13:06:08;;;;;;;43.60;6.60;;;9.60;99.90;;;;;;5011836;28;20040;-50
2022/01/17 13:08:34;;;;;;;45.08;6.45;;;9.60;99.90;;;;;;5011163;28;20048;-51
2022/01/17 13:11:10;;;;;;;46.72;8.10;;;9.60;99.90;;;;;;5010840;28;20140;-50
2022/01/17 13:13:46;;;;;;;45.00;7.22;;;9.50;99.90;;;;;;5010490;28;20056;-51
2022/01/17 13:16:12;;;;;;;45.72;6.72;;;9.60;99.90;;;;;;4994968;28;20030;-50
2022/01/17 13:18:55;;;;;;;37.90;6.25;;;9.60;99.90;;;;;;4998121;28;20038;-51
2022/01/17 13:21:21;;;;;;;37.05;6.50;;;9.60;99.90;;;;;;5009532;28;20045;-50
2022/01/17 13:23:54;;;;;;;33.58;5.93;;;9.50;99.90;;;;;;5006649;28;20132;-51